Time;durP1;ratioP1;P1;durP2;ratioP2;P2;SDS_P1;SDS_P2;PMS_P1;PMS_P2;Temp;Humidity;BMP_temperature;BMP_pressure;BME280_temperature;BME280_humidity;BME280_pressure;Samples;Min_cycle;Max_cycle;Signal;HPM_P1;HPM_P2
2021/05/29 00:00:10;;;;;;;4.40;4.00;;;12.20;72.40;;;;;;5049573;28;20398;-60
2021/05/29 00:02:36;;;;;;;4.33;3.30;;;12.20;72.70;;;;;;5029897;28;20509;-60
2021/05/29 00:05:04;;;;;;;6.60;3.30;;;12.10;72.00;;;;;;5029956;28;21022;-58
2021/05/29 00:07:29;;;;;;;6.10;3.53;;;12.10;72.10;;;;;;5031301;28;20235;-59
2021/05/29 00:09:55;;;;;;;4.73;3.90;;;12.10;72.20;;;;;;5027156;28;20461;-59
2021/05/29 00:12:20;;;;;;;5.00;3.90;;;12.10;73.00;;;;;;5036353;28;20179;-59
2021/05/29 00:14:48;;;;;;;6.60;3.00;;;12.00;73.20;;;;;;5037550;28;20285;-60
2021/05/29 00:17:14;;;;;;;5.20;3.53;;;12.00;73.80;;;;;;5040598;28;20171;-60
2021/05/29 00:19:40;;;;;;;3.73;3.37;;;12.00;74.00;;;;;;5033183;28;20893;-60
2021/05/29 00:22:06;;;;;;;5.20;3.27;;;12.00;74.40;;;;;;5039976;28;20483;-58
2021/05/29 00:24:31;;;;;;;4.10;3.23;;;12.00;75.10;;;;;;5027623;28;20902;-60
2021/05/29 00:26:57;;;;;;;4.07;3.47;;;11.90;75.00;;;;;;5038464;28;20195;-60
2021/05/29 00:29:23;;;;;;;7.47;4.07;;;11.90;75.60;;;;;;5038208;28;20168;-60
2021/05/29 00:31:48;;;;;;;4.53;2.63;;;11.90;76.00;;;;;;5041805;28;20443;-59
2021/05/29 00:34:14;;;;;;;3.47;3.00;;;11.90;76.30;;;;;;5030152;28;20240;-60
2021/05/29 00:36:40;;;;;;;4.03;3.63;;;11.90;76.50;;;;;;5048363;28;20601;-59
2021/05/29 00:39:06;;;;;;;4.17;3.30;;;11.90;76.60;;;;;;5026524;28;20221;-60
2021/05/29 00:41:32;;;;;;;7.90;3.60;;;11.90;77.20;;;;;;5014269;28;20176;-60
2021/05/29 00:43:58;;;;;;;4.27;3.30;;;11.80;77.10;;;;;;5039893;28;20465;-59
2021/05/29 00:46:24;;;;;;;4.37;3.97;;;11.80;77.70;;;;;;5029535;28;20164;-59
2021/05/29 00:48:50;;;;;;;5.40;3.60;;;11.80;77.60;;;;;;5037724;28;20731;-59
2021/05/29 00:51:18;;;;;;;7.33;4.00;;;11.80;77.90;;;;;;5037332;28;20163;-59
2021/05/29 00:53:46;;;;;;;3.50;3.07;;;11.80;78.00;;;;;;5048564;28;20413;-59
2021/05/29 00:56:11;;;;;;;5.50;3.37;;;11.80;78.50;;;;;;5040319;28;20813;-59
2021/05/29 00:58:37;;;;;;;3.83;3.33;;;11.80;79.70;;;;;;5014872;28;20537;-59
2021/05/29 01:01:04;;;;;;;3.40;3.10;;;11.70;80.60;;;;;;5042275;28;20172;-59
2021/05/29 01:03:34;;;;;;;4.80;3.33;;;11.70;81.10;;;;;;5040765;28;20421;-58
2021/05/29 01:06:00;;;;;;;4.07;3.50;;;11.70;81.80;;;;;;5049667;28;20445;-59
2021/05/29 01:08:26;;;;;;;7.40;3.90;;;11.70;81.80;;;;;;5051366;28;20976;-59
2021/05/29 01:10:52;;;;;;;4.27;3.57;;;11.60;82.60;;;;;;5040507;28;20425;-59
2021/05/29 01:13:22;;;;;;;3.80;3.50;;;11.70;82.80;;;;;;5051842;28;20175;-59
2021/05/29 01:15:48;;;;;;;4.10;3.70;;;11.60;83.60;;;;;;5050830;28;20441;-59
2021/05/29 01:18:16;;;;;;;6.13;3.60;;;11.60;83.30;;;;;;5043375;28;20422;-59
2021/05/29 01:20:47;;;;;;;3.60;3.30;;;11.60;83.90;;;;;;5038387;28;20958;-59
2021/05/29 01:23:13;;;;;;;3.53;3.23;;;11.60;83.90;;;;;;5047750;28;20784;-59
2021/05/29 01:25:42;;;;;;;5.37;3.70;;;11.50;83.90;;;;;;5036277;28;20441;-60
2021/05/29 01:28:12;;;;;;;4.30;3.50;;;11.50;84.00;;;;;;5040921;28;20815;-60
2021/05/29 01:30:40;;;;;;;4.17;3.77;;;11.50;84.70;;;;;;5036095;28;20441;-59
2021/05/29 01:33:20;;;;;;;4.80;3.77;;;11.50;85.10;;;;;;5044427;28;20410;-60
2021/05/29 01:35:46;;;;;;;4.37;3.90;;;11.50;85.70;;;;;;5032140;28;20442;-60
2021/05/29 01:38:15;;;;;;;5.97;3.60;;;11.50;86.70;;;;;;5036224;28;20457;-59
2021/05/29 01:40:41;;;;;;;4.97;3.40;;;11.40;87.70;;;;;;5042004;28;20422;-59
2021/05/29 01:43:08;;;;;;;5.93;3.60;;;11.40;88.10;;;;;;5037839;28;20853;-59
2021/05/29 01:45:36;;;;;;;3.70;3.10;;;11.40;88.70;;;;;;5033414;28;20552;-59
2021/05/29 01:48:04;;;;;;;6.43;3.40;;;11.30;89.10;;;;;;5033198;28;20498;-58
2021/05/29 01:50:30;;;;;;;5.03;3.57;;;11.30;89.50;;;;;;5048989;28;20414;-59
2021/05/29 01:52:58;;;;;;;4.53;3.63;;;11.30;89.90;;;;;;5038951;28;20433;-59
2021/05/29 01:55:31;;;;;;;4.93;3.80;;;11.30;89.70;;;;;;5048767;28;20448;-59
2021/05/29 01:57:59;;;;;;;3.70;3.40;;;11.30;89.80;;;;;;5024446;28;20430;-59
2021/05/29 02:00:27;;;;;;;4.90;3.50;;;11.20;90.20;;;;;;5044828;28;20457;-59
2021/05/29 02:02:53;;;;;;;4.17;3.03;;;11.20;90.60;;;;;;5029538;28;20421;-59
2021/05/29 02:05:21;;;;;;;4.17;3.77;;;11.20;90.70;;;;;;5039849;28;20445;-60
2021/05/29 02:07:47;;;;;;;5.10;3.30;;;11.20;90.70;;;;;;5031375;28;20199;-60
2021/05/29 02:10:17;;;;;;;5.60;3.60;;;11.20;90.70;;;;;;5031316;28;20988;-59
2021/05/29 02:12:45;;;;;;;12.43;3.60;;;11.20;90.80;;;;;;5031117;28;20414;-59
2021/05/29 02:15:18;;;;;;;4.27;3.87;;;11.20;90.90;;;;;;5032518;28;20468;-58
2021/05/29 02:17:49;;;;;;;4.10;3.70;;;11.10;91.00;;;;;;5039675;28;20440;-60
2021/05/29 02:20:17;;;;;;;4.10;3.70;;;11.10;90.80;;;;;;5031197;28;20424;-59
2021/05/29 02:22:43;;;;;;;4.10;3.70;;;11.10;91.30;;;;;;5043959;28;20964;-60
2021/05/29 02:25:10;;;;;;;9.97;4.10;;;11.10;91.40;;;;;;5047143;28;20522;-60
2021/05/29 02:27:36;;;;;;;3.80;3.40;;;11.10;91.70;;;;;;5037641;28;20452;-59
2021/05/29 02:30:06;;;;;;;5.17;4.40;;;11.10;91.70;;;;;;5042252;28;20429;-59
2021/05/29 02:32:31;;;;;;;5.20;4.43;;;11.00;92.00;;;;;;5036217;28;20440;-59
2021/05/29 02:34:57;;;;;;;5.00;4.43;;;11.00;92.20;;;;;;5032030;28;20806;-60
2021/05/29 02:37:23;;;;;;;4.90;4.20;;;11.10;92.00;;;;;;5016135;28;20176;-58
2021/05/29 02:39:49;;;;;;;8.43;3.53;;;11.00;91.90;;;;;;5019087;28;20184;-60
2021/05/29 02:42:17;;;;;;;4.00;3.30;;;11.00;91.70;;;;;;5041938;28;20574;-59
2021/05/29 02:44:43;;;;;;;5.17;3.77;;;11.00;92.30;;;;;;5075283;23;20512;-57
2021/05/29 02:47:08;;;;;;;6.27;3.33;;;11.00;92.40;;;;;;5037405;28;20457;-59
2021/05/29 02:49:34;;;;;;;4.40;4.00;;;11.00;92.80;;;;;;5022552;28;20168;-55
2021/05/29 02:52:00;;;;;;;6.33;4.00;;;11.00;93.00;;;;;;5036398;28;20279;-62
2021/05/29 02:54:26;;;;;;;4.20;3.80;;;10.90;92.80;;;;;;5045229;28;20249;-57
2021/05/29 02:56:52;;;;;;;5.17;3.83;;;10.90;93.00;;;;;;5024298;28;20179;-58
2021/05/29 02:59:17;;;;;;;3.20;3.00;;;10.90;92.90;;;;;;5046046;28;20174;-58
2021/05/29 03:01:43;;;;;;;4.07;3.37;;;10.90;93.00;;;;;;5043772;28;20206;-59
2021/05/29 03:04:10;;;;;;;4.47;3.20;;;10.90;93.00;;;;;;5023577;28;20172;-58
2021/05/29 03:06:36;;;;;;;3.70;3.40;;;10.90;92.90;;;;;;5048247;28;20179;-58
2021/05/29 03:09:03;;;;;;;5.07;3.70;;;10.90;92.90;;;;;;5030306;28;20468;-58
2021/05/29 03:11:39;;;;;;;4.93;3.27;;;10.90;92.80;;;;;;5028783;28;20781;-56
2021/05/29 03:14:05;;;;;;;8.07;3.17;;;10.90;92.60;;;;;;5040068;28;20425;-56
2021/05/29 03:16:31;;;;;;;3.40;3.10;;;10.90;92.60;;;;;;5049473;28;20833;-58
2021/05/29 03:18:57;;;;;;;5.30;3.23;;;10.90;92.10;;;;;;5028444;28;20519;-59
2021/05/29 03:21:22;;;;;;;3.60;3.30;;;10.90;92.30;;;;;;5043175;28;20255;-56
2021/05/29 03:23:48;;;;;;;4.53;3.60;;;10.90;92.20;;;;;;5042930;28;20167;-60
2021/05/29 03:26:14;;;;;;;6.27;3.30;;;10.90;92.20;;;;;;5048388;28;20238;-55
2021/05/29 03:28:39;;;;;;;6.43;3.43;;;10.90;92.20;;;;;;5043959;28;20194;-56
2021/05/29 03:31:05;;;;;;;4.30;3.20;;;10.90;92.40;;;;;;5044755;28;20481;-55
2021/05/29 03:33:31;;;;;;;6.10;3.30;;;10.90;92.20;;;;;;5044488;28;20167;-59
2021/05/29 03:35:57;;;;;;;3.70;3.40;;;10.90;92.30;;;;;;5051895;28;20193;-59
2021/05/29 03:38:22;;;;;;;4.30;3.60;;;10.90;92.30;;;;;;5042169;28;21618;-59
2021/05/29 03:40:49;;;;;;;4.13;2.97;;;10.90;92.50;;;;;;5047052;28;20179;-57
2021/05/29 03:43:15;;;;;;;3.03;2.73;;;10.90;92.50;;;;;;5036396;28;20179;-57
2021/05/29 03:45:41;;;;;;;4.33;3.20;;;10.90;92.30;;;;;;5032071;28;20893;-58
2021/05/29 03:48:06;;;;;;;3.83;3.43;;;10.90;92.30;;;;;;5032566;28;20449;-55
2021/05/29 03:50:33;;;;;;;3.90;3.27;;;10.90;92.70;;;;;;5046859;28;20183;-56
2021/05/29 03:52:59;;;;;;;3.90;3.10;;;10.90;93.10;;;;;;5034086;28;20163;-55
2021/05/29 03:55:25;;;;;;;3.80;3.43;;;10.90;92.70;;;;;;5046757;28;20503;-56
2021/05/29 03:57:51;;;;;;;3.07;2.80;;;10.90;92.60;;;;;;5038278;28;20794;-56
2021/05/29 04:00:21;;;;;;;5.30;2.93;;;10.90;92.10;;;;;;5039433;28;20555;-57
2021/05/29 04:02:47;;;;;;;4.87;3.30;;;10.90;92.50;;;;;;5041091;28;20453;-57
2021/05/29 04:05:14;;;;;;;3.30;3.00;;;10.90;92.40;;;;;;5044924;28;20437;-58
2021/05/29 04:07:40;;;;;;;6.50;3.30;;;10.90;92.00;;;;;;5046700;28;20441;-59
2021/05/29 04:10:11;;;;;;;4.50;3.17;;;10.90;92.10;;;;;;5038243;28;20505;-59
2021/05/29 04:12:37;;;;;;;5.33;3.47;;;10.90;91.70;;;;;;5028191;28;20449;-56
2021/05/29 04:15:05;;;;;;;5.43;3.60;;;10.90;91.70;;;;;;5028194;28;20783;-55
2021/05/29 04:17:31;;;;;;;3.77;3.30;;;10.90;92.10;;;;;;5015130;28;20553;-56
2021/05/29 04:19:57;;;;;;;3.77;3.27;;;10.90;91.80;;;;;;5038984;28;20571;-55
2021/05/29 04:22:22;;;;;;;6.63;3.50;;;10.90;91.70;;;;;;5032537;28;20269;-57
2021/05/29 04:24:49;;;;;;;4.57;3.10;;;10.90;91.40;;;;;;5047683;28;20463;-56
2021/05/29 04:27:16;;;;;;;7.30;3.17;;;10.90;91.70;;;;;;5044030;28;20187;-57
2021/05/29 04:29:42;;;;;;;5.87;3.60;;;10.90;91.60;;;;;;5041664;28;20449;-55
2021/05/29 04:32:07;;;;;;;4.23;3.20;;;11.00;91.50;;;;;;5022609;28;20409;-55
2021/05/29 04:34:34;;;;;;;3.80;3.20;;;11.00;91.50;;;;;;5045346;28;20222;-57
2021/05/29 04:37:00;;;;;;;4.10;2.93;;;11.00;91.50;;;;;;5043652;28;20514;-56
2021/05/29 04:39:25;;;;;;;3.13;2.83;;;11.00;91.50;;;;;;5039800;28;20498;-60
2021/05/29 04:41:53;;;;;;;4.50;3.33;;;11.00;91.50;;;;;;5049035;28;20186;-61
2021/05/29 04:44:19;;;;;;;4.00;3.23;;;11.00;91.40;;;;;;5045451;28;20175;-61
2021/05/29 04:46:54;;;;;;;6.43;3.30;;;11.00;91.20;;;;;;5042749;28;20863;-55
2021/05/29 04:49:21;;;;;;;6.10;3.00;;;11.00;91.20;;;;;;5040018;28;20178;-58
2021/05/29 04:51:47;;;;;;;4.23;3.50;;;11.00;91.60;;;;;;5058213;28;20900;-56
2021/05/29 04:54:13;;;;;;;4.00;3.10;;;11.00;91.60;;;;;;5046289;28;20460;-59
2021/05/29 04:56:40;;;;;;;4.80;4.07;;;11.00;91.40;;;;;;5047688;28;20413;-56
2021/05/29 04:59:07;;;;;;;6.70;4.07;;;11.10;91.20;;;;;;5051097;28;20425;-59
2021/05/29 05:01:33;;;;;;;4.63;3.20;;;11.10;91.00;;;;;;5036525;28;20945;-58
2021/05/29 05:04:00;;;;;;;3.87;2.80;;;11.10;90.60;;;;;;5043442;28;20425;-60
2021/05/29 05:06:26;;;;;;;3.60;2.97;;;11.10;91.00;;;;;;5040154;28;20449;-57
2021/05/29 05:08:54;;;;;;;3.93;3.50;;;11.10;90.40;;;;;;5042636;28;20656;-59
2021/05/29 05:11:20;;;;;;;5.87;3.07;;;11.10;90.00;;;;;;5044030;28;20442;-58
2021/05/29 05:13:47;;;;;;;4.70;3.23;;;11.10;90.10;;;;;;5038042;28;20441;-60
2021/05/29 05:16:14;;;;;;;3.97;3.33;;;11.20;90.20;;;;;;5033465;28;20452;-61
2021/05/29 05:18:39;;;;;;;9.63;3.23;;;11.20;89.70;;;;;;5048058;28;20433;-62
2021/05/29 05:21:05;;;;;;;4.53;3.10;;;11.30;89.80;;;;;;5041968;28;20440;-58
2021/05/29 05:23:31;;;;;;;4.60;3.40;;;11.30;89.60;;;;;;5040725;28;20178;-59
2021/05/29 05:25:57;;;;;;;7.77;3.40;;;11.40;89.00;;;;;;5042944;28;20292;-57
2021/05/29 05:28:26;;;;;;;7.73;3.47;;;11.40;88.30;;;;;;5041557;28;20217;-58
2021/05/29 05:30:54;;;;;;;4.10;2.73;;;11.50;88.20;;;;;;5036056;28;20511;-61
2021/05/29 05:33:20;;;;;;;4.43;3.23;;;11.50;87.90;;;;;;5044820;28;20437;-57
2021/05/29 05:35:47;;;;;;;5.80;3.20;;;11.50;88.20;;;;;;5060689;28;20506;-57
2021/05/29 05:38:12;;;;;;;7.90;3.50;;;11.50;88.00;;;;;;5045883;28;20701;-57
2021/05/29 05:40:38;;;;;;;4.80;3.20;;;11.60;88.30;;;;;;5036136;28;20438;-59
2021/05/29 05:43:04;;;;;;;5.27;3.33;;;11.60;87.90;;;;;;5037047;28;20181;-57
2021/05/29 05:45:30;;;;;;;4.47;3.30;;;11.60;87.90;;;;;;5046082;28;20479;-58
2021/05/29 05:47:55;;;;;;;10.73;3.00;;;11.70;87.80;;;;;;5046686;28;20698;-57
2021/05/29 05:50:21;;;;;;;8.47;3.57;;;11.70;87.30;;;;;;5042388;28;20172;-58
2021/05/29 05:52:47;;;;;;;8.60;3.13;;;11.70;86.70;;;;;;5034536;28;20358;-57
2021/05/29 05:55:13;;;;;;;5.47;3.70;;;11.80;84.60;;;;;;5060938;28;20186;-56
2021/05/29 05:57:39;;;;;;;11.00;3.00;;;11.80;83.50;;;;;;5015086;28;20347;-58
2021/05/29 06:00:08;;;;;;;6.80;3.00;;;11.80;83.20;;;;;;5041864;28;20521;-58
2021/05/29 06:02:34;;;;;;;5.90;2.90;;;11.90;83.30;;;;;;5041411;28;20208;-59
2021/05/29 06:04:59;;;;;;;3.90;2.90;;;11.80;82.10;;;;;;5037848;28;20950;-57
2021/05/29 06:07:25;;;;;;;2.87;2.67;;;11.80;82.20;;;;;;5027554;28;20195;-58
2021/05/29 06:09:51;;;;;;;5.67;2.87;;;11.90;81.60;;;;;;5042794;28;20237;-58
2021/05/29 06:12:17;;;;;;;2.90;2.60;;;11.90;83.30;;;;;;5032389;28;20167;-57
2021/05/29 06:20:14;;;;;;;3.37;3.07;;;11.90;81.80;;;;;;5038871;28;20409;-57
2021/05/29 06:22:40;;;;;;;2.90;2.43;;;12.00;82.00;;;;;;5045913;28;20426;-57
2021/05/29 06:25:09;;;;;;;3.20;2.40;;;12.00;83.30;;;;;;5029511;28;20489;-59
2021/05/29 06:27:35;;;;;;;4.00;2.50;;;12.00;83.00;;;;;;5044394;28;20461;-59
2021/05/29 06:30:01;;;;;;;3.30;2.30;;;12.10;82.50;;;;;;5038342;28;20941;-58
2021/05/29 06:32:26;;;;;;;7.30;2.93;;;12.10;81.60;;;;;;5037150;28;20487;-59
2021/05/29 06:34:52;;;;;;;3.97;2.60;;;12.10;80.40;;;;;;5030158;28;20226;-59
2021/05/29 06:37:20;;;;;;;2.83;2.57;;;12.10;80.50;;;;;;5032003;28;20186;-60
2021/05/29 06:39:45;;;;;;;11.10;4.83;;;12.10;80.50;;;;;;5039063;28;20867;-58
2021/05/29 06:42:14;;;;;;;2.47;2.27;;;12.10;80.00;;;;;;5051559;28;20438;-59
2021/05/29 06:44:40;;;;;;;2.97;2.73;;;12.20;79.70;;;;;;5033186;28;20788;-60
2021/05/29 06:47:06;;;;;;;2.87;2.43;;;12.20;78.40;;;;;;5030648;28;20430;-59
2021/05/29 06:49:35;;;;;;;2.60;2.40;;;12.30;78.90;;;;;;5032448;28;20179;-59
2021/05/29 06:52:12;;;;;;;3.30;2.10;;;12.40;78.50;;;;;;5034901;28;20930;-56
2021/05/29 06:55:06;;;;;;;4.07;2.73;;;12.50;78.80;;;;;;5031324;28;20461;-62
2021/05/29 07:00:17;;;;;;;3.80;2.80;;;12.70;79.40;;;;;;5035404;28;20508;-59
2021/05/29 07:02:42;;;;;;;5.27;2.70;;;12.80;78.60;;;;;;5038141;28;20430;-60
2021/05/29 07:05:10;;;;;;;2.50;2.30;;;12.90;77.30;;;;;;5038374;28;20463;-61
2021/05/29 07:07:36;;;;;;;2.40;2.20;;;13.10;76.30;;;;;;5034594;28;21125;-58
2021/05/29 07:10:06;;;;;;;3.53;2.27;;;13.20;73.70;;;;;;5022795;28;20433;-61
2021/05/29 07:12:32;;;;;;;2.70;2.50;;;13.50;74.00;;;;;;5036341;28;20430;-61
2021/05/29 07:14:58;;;;;;;7.03;2.17;;;13.80;71.50;;;;;;5039064;28;21565;-59
2021/05/29 07:17:29;;;;;;;2.93;2.20;;;14.10;69.50;;;;;;5044245;28;20588;-60
2021/05/29 07:19:55;;;;;;;2.60;2.40;;;14.20;67.00;;;;;;5036590;28;20790;-61
2021/05/29 07:22:21;;;;;;;5.63;2.33;;;14.20;62.60;;;;;;5040409;28;20445;-59
2021/05/29 07:24:47;;;;;;;2.30;2.10;;;14.20;62.30;;;;;;5040440;28;20737;-62
2021/05/29 07:27:13;;;;;;;2.20;2.00;;;14.20;62.60;;;;;;5037683;28;20464;-59
2021/05/29 07:29:38;;;;;;;2.37;2.17;;;14.30;63.00;;;;;;5039582;28;20183;-59
2021/05/29 07:32:04;;;;;;;4.27;2.00;;;14.30;63.30;;;;;;5030475;28;20201;-56
2021/05/29 07:34:30;;;;;;;3.70;2.20;;;14.50;60.60;;;;;;5034630;28;20199;-59
2021/05/29 07:36:55;;;;;;;3.30;2.10;;;14.60;59.90;;;;;;5033374;28;20698;-62
2021/05/29 07:39:21;;;;;;;4.30;2.47;;;14.70;57.80;;;;;;5016483;28;20719;-60
2021/05/29 07:41:47;;;;;;;1.93;1.80;;;14.70;57.60;;;;;;5030782;28;20168;-60
2021/05/29 07:44:12;;;;;;;2.23;2.10;;;14.80;57.30;;;;;;5041876;28;20259;-59
2021/05/29 07:46:38;;;;;;;2.43;2.10;;;14.90;56.80;;;;;;5039165;28;20560;-61
2021/05/29 07:49:07;;;;;;;2.13;2.03;;;15.00;56.60;;;;;;5049695;28;20195;-60
2021/05/29 07:51:37;;;;;;;4.10;2.27;;;15.10;56.30;;;;;;5038145;28;20183;-60
2021/05/29 07:54:08;;;;;;;3.53;2.37;;;15.20;56.00;;;;;;5032171;28;21011;-60
2021/05/29 07:56:34;;;;;;;2.40;2.10;;;15.30;54.50;;;;;;5034798;28;20445;-59
2021/05/29 07:59:10;;;;;;;2.27;2.03;;;15.40;53.70;;;;;;5051934;28;20440;-58
2021/05/29 08:01:36;;;;;;;2.57;2.13;;;15.40;53.60;;;;;;5039431;28;20436;-62
2021/05/29 08:04:01;;;;;;;2.53;2.30;;;15.40;53.80;;;;;;5020810;28;20421;-61
2021/05/29 08:06:28;;;;;;;3.07;1.83;;;15.50;54.30;;;;;;5014806;28;20457;-61
2021/05/29 08:08:53;;;;;;;5.50;2.00;;;15.60;53.20;;;;;;5042043;28;20206;-59
2021/05/29 08:11:24;;;;;;;2.37;2.17;;;15.60;52.40;;;;;;5041908;28;20463;-61
2021/05/29 08:13:51;;;;;;;2.53;2.33;;;15.70;52.60;;;;;;5035181;28;20224;-60
2021/05/29 08:16:18;;;;;;;3.43;2.03;;;15.80;52.10;;;;;;5043665;28;20983;-60
2021/05/29 08:18:44;;;;;;;3.57;1.80;;;15.90;50.10;;;;;;5044867;28;20430;-60
2021/05/29 08:21:11;;;;;;;2.10;1.60;;;15.90;49.60;;;;;;5052684;28;20526;-61
2021/05/29 08:23:37;;;;;;;3.00;2.00;;;16.00;50.10;;;;;;5050910;28;20221;-62
2021/05/29 08:26:02;;;;;;;2.33;2.10;;;16.10;51.00;;;;;;5060512;28;20468;-63
2021/05/29 08:28:28;;;;;;;1.83;1.73;;;16.10;50.70;;;;;;5073025;28;20466;-63
2021/05/29 08:30:54;;;;;;;4.57;1.70;;;16.20;49.20;;;;;;5072848;28;20167;-62
2021/05/29 08:33:20;;;;;;;2.70;2.27;;;16.20;48.80;;;;;;5039479;28;20191;-60
2021/05/29 08:35:45;;;;;;;2.20;2.00;;;16.30;49.20;;;;;;5050994;28;20194;-59
2021/05/29 08:38:11;;;;;;;3.57;1.90;;;16.20;49.40;;;;;;5042937;28;20814;-58
2021/05/29 08:40:37;;;;;;;5.50;2.47;;;16.30;49.70;;;;;;5039246;28;20675;-59
2021/05/29 08:43:03;;;;;;;3.43;2.03;;;16.30;50.80;;;;;;5043859;28;20182;-60
2021/05/29 08:45:29;;;;;;;2.20;2.00;;;16.50;51.10;;;;;;5078596;22;20230;-62
2021/05/29 08:47:55;;;;;;;3.57;2.20;;;16.60;50.40;;;;;;5066507;28;20532;-61
2021/05/29 08:50:21;;;;;;;3.20;2.07;;;16.70;50.20;;;;;;5070655;28;20190;-62
2021/05/29 08:52:48;;;;;;;2.63;2.10;;;16.70;48.80;;;;;;5066803;28;20700;-61
2021/05/29 08:55:15;;;;;;;2.73;2.27;;;16.80;49.60;;;;;;5061099;28;20472;-62
2021/05/29 08:57:41;;;;;;;5.50;2.50;;;16.90;49.20;;;;;;5082826;28;20875;-61
2021/05/29 09:00:10;;;;;;;2.80;2.37;;;16.80;49.40;;;;;;5086225;28;20982;-61
2021/05/29 09:03:03;;;;;;;2.40;2.20;;;16.80;49.20;;;;;;5085077;28;20846;-60
2021/05/29 09:05:47;;;;;;;2.30;1.93;;;16.90;49.50;;;;;;5076088;28;20533;-61
2021/05/29 09:08:13;;;;;;;2.80;2.27;;;17.00;48.90;;;;;;5083885;28;20524;-61
2021/05/29 09:10:46;;;;;;;2.00;1.90;;;17.10;49.10;;;;;;5079698;28;20421;-62
2021/05/29 09:13:21;;;;;;;6.17;2.30;;;17.20;49.30;;;;;;5087687;28;20439;-61
2021/05/29 09:15:58;;;;;;;2.90;1.90;;;17.40;49.90;;;;;;5090739;28;20438;-61
2021/05/29 09:18:30;;;;;;;2.57;2.37;;;17.70;49.10;;;;;;5073453;28;20415;-61
2021/05/29 09:21:15;;;;;;;4.03;2.50;;;17.90;48.20;;;;;;5084439;28;20507;-61
2021/05/29 09:23:53;;;;;;;2.27;2.07;;;18.10;48.50;;;;;;5088048;28;20493;-61
2021/05/29 09:26:23;;;;;;;2.70;1.90;;;18.30;48.00;;;;;;5062142;28;20452;-61
2021/05/29 09:28:51;;;;;;;4.53;1.80;;;18.40;47.10;;;;;;5089527;28;20898;-60
2021/05/29 09:31:17;;;;;;;1.90;1.80;;;18.50;47.50;;;;;;5078475;28;20924;-60
2021/05/29 09:33:44;;;;;;;2.57;2.37;;;18.60;48.00;;;;;;5063220;28;20451;-62
2021/05/29 09:36:12;;;;;;;3.93;2.10;;;18.80;47.00;;;;;;5076485;28;20431;-61
2021/05/29 09:39:05;;;;;;;3.20;1.83;;;18.80;46.50;;;;;;5091139;28;20404;-61
2021/05/29 09:41:32;;;;;;;4.00;2.00;;;18.90;46.80;;;;;;5084176;28;20536;-61
2021/05/29 09:44:06;;;;;;;4.50;2.37;;;19.00;44.70;;;;;;5077545;28;20444;-61
2021/05/29 09:46:51;;;;;;;8.90;1.97;;;18.90;43.10;;;;;;5065694;28;21090;-61
2021/05/29 09:49:17;;;;;;;2.53;1.70;;;18.80;44.00;;;;;;5071998;28;20513;-61
2021/05/29 09:51:42;;;;;;;2.80;1.60;;;18.70;43.50;;;;;;5070439;28;20405;-61
2021/05/29 09:54:10;;;;;;;2.17;1.97;;;18.60;43.90;;;;;;5067026;28;20170;-61
2021/05/29 09:56:42;;;;;;;3.37;1.77;;;18.30;43.80;;;;;;5073923;28;20221;-61
2021/05/29 09:59:13;;;;;;;5.03;2.10;;;18.20;44.20;;;;;;5082940;28;20518;-62
2021/05/29 10:01:43;;;;;;;3.07;1.80;;;18.10;44.00;;;;;;5082624;28;20845;-62
2021/05/29 10:04:12;;;;;;;3.93;2.37;;;18.10;43.50;;;;;;5086196;28;20436;-60
2021/05/29 10:06:38;;;;;;;2.10;1.93;;;18.20;44.60;;;;;;5076402;28;20493;-62
2021/05/29 10:09:06;;;;;;;2.30;2.10;;;18.30;44.30;;;;;;5079889;28;21001;-62
2021/05/29 10:11:35;;;;;;;3.30;2.37;;;18.50;44.10;;;;;;5079586;28;21212;-62
2021/05/29 10:14:03;;;;;;;1.90;1.80;;;18.50;43.00;;;;;;5065659;28;20427;-60
2021/05/29 10:16:30;;;;;;;4.23;1.97;;;18.40;42.00;;;;;;5065681;28;20795;-62
2021/05/29 10:18:58;;;;;;;2.47;2.03;;;18.40;42.90;;;;;;5082559;28;20436;-61
2021/05/29 10:21:26;;;;;;;5.20;2.00;;;18.60;43.00;;;;;;5087440;28;20411;-65
2021/05/29 10:23:53;;;;;;;2.50;1.80;;;18.80;42.70;;;;;;5087498;28;20430;-62
2021/05/29 10:26:19;;;;;;;4.00;2.10;;;19.00;42.80;;;;;;5078958;28;20456;-62
2021/05/29 10:28:45;;;;;;;2.70;1.87;;;19.10;42.10;;;;;;5081633;28;20830;-62
2021/05/29 10:31:12;;;;;;;3.53;2.03;;;19.30;41.20;;;;;;5081535;28;20211;-61
2021/05/29 10:33:42;;;;;;;2.37;2.17;;;19.50;41.70;;;;;;5070472;28;20501;-60
2021/05/29 10:36:09;;;;;;;1.60;1.50;;;19.60;39.70;;;;;;5054264;28;20459;-60
2021/05/29 10:38:45;;;;;;;1.80;1.70;;;19.70;40.70;;;;;;5072575;28;20457;-61
2021/05/29 10:41:11;;;;;;;2.07;1.83;;;19.90;41.50;;;;;;5055312;28;20519;-61
2021/05/29 10:43:37;;;;;;;2.73;1.70;;;20.10;41.30;;;;;;5077346;28;20512;-61
2021/05/29 10:46:12;;;;;;;2.30;2.10;;;20.20;40.80;;;;;;5071479;28;20464;-62
2021/05/29 10:48:49;;;;;;;2.90;2.27;;;20.30;41.60;;;;;;5073529;28;20194;-61
2021/05/29 10:51:16;;;;;;;6.77;2.10;;;20.60;43.50;;;;;;5077355;28;20424;-63
2021/05/29 10:53:46;;;;;;;2.07;1.87;;;20.80;42.70;;;;;;5062838;28;20415;-61
2021/05/29 10:56:15;;;;;;;2.37;1.80;;;20.60;41.30;;;;;;5077235;28;20447;-61
2021/05/29 10:59:01;;;;;;;2.07;1.80;;;20.10;40.10;;;;;;5074346;28;20424;-60
2021/05/29 11:01:35;;;;;;;7.90;2.00;;;19.60;39.70;;;;;;5080371;28;20435;-61
2021/05/29 11:04:16;;;;;;;2.63;2.00;;;19.40;39.60;;;;;;5079807;28;20462;-61
2021/05/29 11:06:42;;;;;;;1.77;1.67;;;19.70;40.80;;;;;;5053748;28;20827;-61
2021/05/29 11:09:08;;;;;;;4.10;1.80;;;20.10;40.00;;;;;;5072569;28;21438;-60
2021/05/29 11:14:25;;;;;;;3.23;1.83;;;20.80;39.20;;;;;;5073901;28;20658;-60
2021/05/29 11:16:52;;;;;;;1.93;1.73;;;21.00;37.60;;;;;;5078059;28;20476;-60
2021/05/29 11:19:22;;;;;;;4.60;1.80;;;21.20;37.70;;;;;;5080264;28;20439;-58
2021/05/29 11:22:01;;;;;;;9.00;2.23;;;21.20;38.30;;;;;;5074142;28;20446;-59
2021/05/29 11:24:28;;;;;;;5.03;1.93;;;21.00;36.90;;;;;;5075416;28;20446;-61
2021/05/29 11:26:54;;;;;;;1.73;1.63;;;20.80;38.20;;;;;;5056074;28;20448;-60
2021/05/29 11:29:20;;;;;;;1.80;1.70;;;20.80;39.30;;;;;;5070072;28;20452;-60
2021/05/29 11:31:48;;;;;;;2.13;1.80;;;21.00;39.70;;;;;;5074582;28;20175;-60
2021/05/29 11:34:14;;;;;;;2.00;1.70;;;21.20;38.80;;;;;;5077701;28;20428;-61
2021/05/29 11:36:42;;;;;;;3.40;2.20;;;21.20;38.60;;;;;;5072960;28;20504;-61
2021/05/29 11:39:12;;;;;;;3.90;1.83;;;21.00;37.50;;;;;;5071484;28;20190;-62
2021/05/29 11:41:39;;;;;;;3.23;1.83;;;20.70;36.50;;;;;;5067927;28;20528;-60
2021/05/29 11:44:17;;;;;;;3.43;2.17;;;20.40;36.40;;;;;;5054339;28;20424;-60
2021/05/29 11:46:44;;;;;;;2.77;2.17;;;20.20;36.70;;;;;;5073608;28;20467;-60
2021/05/29 11:49:10;;;;;;;3.30;1.77;;;20.00;37.10;;;;;;5078000;28;20528;-61
2021/05/29 11:51:41;;;;;;;2.80;1.70;;;19.90;38.70;;;;;;5074579;28;20793;-59
2021/05/29 11:54:16;;;;;;;3.00;1.60;;;19.80;38.20;;;;;;5074770;28;20779;-59
2021/05/29 11:56:48;;;;;;;2.33;1.90;;;19.80;38.50;;;;;;5073876;28;20459;-60
2021/05/29 11:59:15;;;;;;;2.80;1.60;;;19.90;39.00;;;;;;5071441;28;21481;-59
2021/05/29 12:01:44;;;;;;;5.50;1.70;;;20.20;38.30;;;;;;5058550;28;20548;-60
2021/05/29 12:04:19;;;;;;;1.47;1.33;;;20.70;37.20;;;;;;5076603;28;20452;-59
2021/05/29 12:06:56;;;;;;;1.83;1.70;;;21.10;36.00;;;;;;5075898;28;20478;-60
2021/05/29 12:09:31;;;;;;;2.10;1.90;;;21.50;35.70;;;;;;5081308;28;20467;-58
2021/05/29 12:12:06;;;;;;;2.60;1.70;;;21.70;34.40;;;;;;5073352;28;20426;-59
2021/05/29 12:14:42;;;;;;;1.63;1.53;;;21.50;34.00;;;;;;5074035;28;20431;-59
2021/05/29 12:17:08;;;;;;;1.80;1.60;;;21.00;35.10;;;;;;5077497;28;20806;-59
2021/05/29 12:19:54;;;;;;;1.70;1.60;;;20.60;35.50;;;;;;5081236;28;20962;-59
2021/05/29 12:22:24;;;;;;;2.30;1.93;;;20.10;36.30;;;;;;5076175;28;21053;-60
2021/05/29 12:24:59;;;;;;;1.80;1.70;;;19.80;37.00;;;;;;5079433;28;21903;-60
2021/05/29 12:27:27;;;;;;;2.50;2.17;;;19.50;36.60;;;;;;5075083;28;20459;-60
2021/05/29 12:30:03;;;;;;;6.53;2.40;;;19.30;37.10;;;;;;5058018;28;20428;-61
2021/05/29 12:32:40;;;;;;;1.80;1.70;;;19.30;38.80;;;;;;5072632;28;20427;-59
2021/05/29 12:35:08;;;;;;;2.03;1.40;;;19.70;40.50;;;;;;5073528;28;20939;-60
2021/05/29 12:37:35;;;;;;;1.73;1.30;;;20.40;41.80;;;;;;5072491;28;20428;-58
2021/05/29 12:40:03;;;;;;;1.97;1.77;;;21.10;40.20;;;;;;5079241;28;20519;-60
2021/05/29 12:42:42;;;;;;;2.10;1.90;;;21.80;40.00;;;;;;5058849;28;20435;-61
2021/05/29 12:45:40;;;;;;;3.10;2.00;;;22.40;37.60;;;;;;5060379;28;20526;-61
2021/05/29 12:48:11;;;;;;;2.40;1.83;;;22.20;35.30;;;;;;5060045;28;22204;-60
2021/05/29 12:50:39;;;;;;;5.83;1.80;;;21.70;35.40;;;;;;5076112;28;20459;-61
2021/05/29 12:53:16;;;;;;;1.80;1.70;;;21.20;35.90;;;;;;5083347;28;20882;-61
2021/05/29 12:55:44;;;;;;;1.97;1.60;;;20.60;37.60;;;;;;5086286;28;20546;-60
2021/05/29 12:58:13;;;;;;;5.67;2.00;;;20.20;38.50;;;;;;5082447;28;20438;-60
2021/05/29 13:09:08;;;;;;;2.03;1.80;;;20.70;39.20;;;;;;5075817;28;20574;-61